Time;durP1;ratioP1;P1;durP2;ratioP2;P2;SDS_P1;SDS_P2;PMS_P1;PMS_P2;Temp;Humidity;BMP_temperature;BMP_pressure;BME280_temperature;BME280_humidity;BME280_pressure;Samples;Min_cycle;Max_cycle;Signal;HPM_P1;HPM_P2
2022/06/04 00:00:49;;;;;;;1.83;1.48;;;21.80;54.70;;;;;;4928621;28;92693;-69
2022/06/04 00:03:15;;;;;;;2.00;1.50;;;21.80;54.60;;;;;;4930089;28;92856;-68
2022/06/04 00:05:44;;;;;;;2.13;1.67;;;21.80;54.70;;;;;;4929087;28;92445;-70
2022/06/04 00:08:10;;;;;;;1.98;1.60;;;21.80;54.60;;;;;;4928995;28;93213;-69
2022/06/04 00:16:12;;;;;;;2.53;1.67;;;21.80;54.50;;;;;;4928653;28;93503;-69
2022/06/04 00:18:39;;;;;;;1.95;1.30;;;21.80;54.60;;;;;;4927732;28;93623;-70
2022/06/04 00:21:06;;;;;;;2.28;1.80;;;21.80;55.30;;;;;;4928507;28;93169;-69
2022/06/04 00:23:32;;;;;;;2.53;1.67;;;21.80;54.60;;;;;;4927375;28;92757;-69
2022/06/04 00:25:59;;;;;;;2.15;1.65;;;21.80;54.70;;;;;;4927174;28;92600;-68
2022/06/04 00:28:26;;;;;;;2.20;1.80;;;21.80;54.50;;;;;;4928216;28;93266;-69
2022/06/04 00:30:54;;;;;;;2.17;1.55;;;21.80;54.60;;;;;;4928081;28;93626;-69
2022/06/04 00:33:20;;;;;;;2.30;1.55;;;21.80;54.60;;;;;;4928800;28;93064;-68
2022/06/04 00:35:50;;;;;;;1.52;1.42;;;21.70;54.50;;;;;;4929560;28;92039;-70
2022/06/04 00:38:18;;;;;;;1.85;1.65;;;21.80;54.70;;;;;;4929473;28;92954;-69
2022/06/04 00:40:52;;;;;;;3.00;1.40;;;21.80;54.60;;;;;;4928567;28;93275;-70
2022/06/04 00:43:19;;;;;;;2.13;1.63;;;21.80;54.70;;;;;;4929219;28;94082;-68
2022/06/04 00:46:22;;;;;;;1.75;1.65;;;21.80;54.70;;;;;;4927887;28;92411;-69
2022/06/04 00:48:48;;;;;;;2.28;1.88;;;21.80;54.60;;;;;;4927363;28;93177;-69
2022/06/04 00:51:16;;;;;;;2.75;2.28;;;21.70;54.70;;;;;;4927253;28;92857;-68
2022/06/04 00:53:42;;;;;;;1.90;1.67;;;21.80;54.90;;;;;;4928042;28;93348;-69
2022/06/04 00:56:30;;;;;;;2.00;1.70;;;21.70;54.70;;;;;;4927861;28;92031;-69
2022/06/04 00:59:05;;;;;;;2.75;1.63;;;21.80;54.80;;;;;;4928149;28;93145;-70
2022/06/04 01:01:53;;;;;;;1.60;1.50;;;21.70;54.80;;;;;;4928828;28;93251;-69
2022/06/04 01:04:49;;;;;;;1.73;1.63;;;21.70;54.80;;;;;;4928419;28;93093;-69
2022/06/04 01:07:49;;;;;;;1.73;1.50;;;21.70;54.70;;;;;;4927773;28;93568;-69
2022/06/04 01:10:15;;;;;;;2.95;1.60;;;21.70;54.80;;;;;;4927610;28;94303;-69
2022/06/04 01:13:27;;;;;;;1.90;1.60;;;21.70;54.70;;;;;;4928421;28;93213;-70
2022/06/04 01:15:58;;;;;;;1.70;1.60;;;21.70;54.70;;;;;;4918871;28;92539;-70
2022/06/04 01:19:03;;;;;;;1.80;1.65;;;21.70;54.80;;;;;;4927603;28;93123;-69
2022/06/04 01:21:57;;;;;;;1.77;1.67;;;21.70;54.80;;;;;;4926607;28;93064;-70
2022/06/04 01:25:10;;;;;;;2.33;1.65;;;21.70;54.80;;;;;;4927355;28;93731;-70
2022/06/04 01:27:58;;;;;;;1.60;1.50;;;21.70;54.90;;;;;;4928346;28;92934;-69
2022/06/04 01:30:39;;;;;;;1.58;1.48;;;21.70;54.80;;;;;;4927914;28;91812;-69
2022/06/04 01:33:15;;;;;;;1.58;1.48;;;21.70;54.70;;;;;;4927844;28;95603;-69
2022/06/04 01:35:46;;;;;;;2.20;1.58;;;21.70;54.90;;;;;;4927173;28;93211;-70
2022/06/04 01:38:22;;;;;;;2.13;1.35;;;21.70;54.90;;;;;;4926673;28;94132;-69
2022/06/04 01:41:04;;;;;;;3.03;1.73;;;21.70;54.80;;;;;;4928637;28;92794;-69
2022/06/04 01:43:52;;;;;;;1.73;1.55;;;21.70;54.90;;;;;;4942326;28;96014;-69
2022/06/04 01:46:34;;;;;;;1.85;1.50;;;21.70;54.90;;;;;;4927604;28;93366;-70
2022/06/04 01:49:08;;;;;;;1.70;1.55;;;21.70;55.00;;;;;;4928454;28;92494;-70
2022/06/04 01:51:34;;;;;;;1.58;1.48;;;21.70;55.00;;;;;;4927195;28;92287;-69
2022/06/04 01:54:12;;;;;;;1.40;1.30;;;21.70;54.90;;;;;;4927602;28;93355;-70
2022/06/04 01:56:48;;;;;;;1.55;1.45;;;21.70;54.80;;;;;;4927565;28;92815;-70
2022/06/04 01:59:19;;;;;;;1.95;1.50;;;21.70;54.90;;;;;;4927606;28;93202;-70
2022/06/04 02:01:47;;;;;;;1.48;1.38;;;21.70;54.90;;;;;;4927320;28;92882;-70
2022/06/04 02:04:18;;;;;;;2.00;1.40;;;21.70;54.90;;;;;;4926995;28;94319;-69
2022/06/04 02:09:42;;;;;;;2.17;1.83;;;21.70;54.80;;;;;;4927979;28;92701;-69
2022/06/04 02:12:10;;;;;;;1.95;1.50;;;21.70;54.90;;;;;;4927498;28;93154;-68
2022/06/04 02:14:36;;;;;;;1.70;1.60;;;21.70;54.90;;;;;;4927854;28;92847;-70
2022/06/04 02:17:06;;;;;;;1.65;1.55;;;21.70;54.90;;;;;;4927250;28;93090;-69
2022/06/04 02:19:32;;;;;;;1.75;1.65;;;21.70;55.00;;;;;;4928011;28;91938;-69
2022/06/04 02:21:58;;;;;;;1.65;1.55;;;21.70;55.00;;;;;;4925930;28;91815;-70
2022/06/04 02:24:24;;;;;;;1.48;1.30;;;21.70;55.00;;;;;;4927935;28;93406;-69
2022/06/04 02:26:50;;;;;;;1.58;1.48;;;21.70;55.00;;;;;;4927811;28;92947;-68
2022/06/04 02:29:16;;;;;;;1.50;1.40;;;21.70;55.00;;;;;;4927406;28;93495;-70
2022/06/04 02:31:51;;;;;;;2.97;1.55;;;21.70;54.90;;;;;;4927144;28;92939;-69
2022/06/04 02:34:34;;;;;;;1.77;1.38;;;21.70;55.00;;;;;;4926119;28;94577;-69
2022/06/04 02:37:05;;;;;;;1.55;1.45;;;21.70;54.90;;;;;;4925901;28;92912;-70
2022/06/04 02:39:37;;;;;;;1.60;1.50;;;21.70;55.10;;;;;;4927155;28;92732;-68
2022/06/04 02:42:15;;;;;;;1.33;1.25;;;21.70;55.00;;;;;;4925934;28;92587;-69
2022/06/04 02:44:54;;;;;;;1.75;1.40;;;21.70;55.00;;;;;;4929780;28;93094;-69
2022/06/04 02:47:35;;;;;;;2.10;1.42;;;21.70;54.90;;;;;;4929647;28;92859;-69
2022/06/04 02:50:08;;;;;;;1.92;1.55;;;21.70;54.90;;;;;;4930447;28;92992;-69
2022/06/04 02:52:35;;;;;;;1.75;1.40;;;21.70;54.90;;;;;;4930181;28;92692;-68
2022/06/04 02:55:09;;;;;;;1.77;1.48;;;21.70;55.00;;;;;;4930397;28;93780;-70
2022/06/04 02:57:39;;;;;;;1.70;1.60;;;21.70;54.90;;;;;;4932708;28;93698;-69
2022/06/04 03:00:08;;;;;;;1.40;1.30;;;21.70;54.80;;;;;;4929820;28;93250;-70
2022/06/04 03:02:35;;;;;;;1.40;1.30;;;21.70;54.90;;;;;;4928078;28;93142;-69
2022/06/04 03:05:09;;;;;;;1.60;1.50;;;21.70;54.90;;;;;;4929953;28;93023;-68
2022/06/04 03:07:37;;;;;;;1.50;1.40;;;21.70;55.00;;;;;;4929781;28;94381;-68
2022/06/04 03:10:10;;;;;;;1.70;1.60;;;21.70;54.80;;;;;;4930397;28;92579;-69
2022/06/04 03:12:36;;;;;;;1.88;1.50;;;21.70;54.80;;;;;;4931029;28;91265;-69
2022/06/04 03:15:03;;;;;;;1.60;1.40;;;21.70;54.90;;;;;;4927983;28;96253;-70
2022/06/04 03:17:29;;;;;;;1.30;1.20;;;21.70;54.60;;;;;;4928370;28;95796;-68
2022/06/04 03:19:55;;;;;;;1.45;1.35;;;21.70;54.90;;;;;;4931152;28;93038;-70
2022/06/04 03:22:20;;;;;;;1.55;1.33;;;21.70;54.90;;;;;;4930198;28;92785;-69
2022/06/04 03:24:46;;;;;;;1.27;1.17;;;21.70;54.80;;;;;;4929749;28;92917;-69
2022/06/04 03:27:12;;;;;;;2.08;1.65;;;21.70;54.80;;;;;;4928372;28;95480;-70
2022/06/04 03:29:37;;;;;;;1.60;1.38;;;21.70;54.90;;;;;;4930093;28;92422;-69
2022/06/04 03:32:03;;;;;;;1.65;1.55;;;21.70;54.90;;;;;;4930191;28;92692;-69
2022/06/04 03:34:29;;;;;;;1.23;1.20;;;21.70;54.90;;;;;;4928977;28;92404;-69
2022/06/04 03:36:54;;;;;;;1.65;1.55;;;21.70;54.70;;;;;;4929730;28;92316;-68
2022/06/04 03:39:23;;;;;;;1.83;1.45;;;21.70;54.90;;;;;;4929451;28;92088;-69
2022/06/04 03:41:48;;;;;;;1.60;1.50;;;21.60;54.80;;;;;;4928912;28;93007;-70
2022/06/04 03:44:14;;;;;;;1.50;1.40;;;21.60;54.60;;;;;;4927133;28;97377;-68
2022/06/04 03:46:40;;;;;;;1.50;1.27;;;21.70;54.90;;;;;;4928034;28;96732;-69
2022/06/04 03:49:06;;;;;;;1.52;1.38;;;21.60;54.80;;;;;;4929598;28;93152;-68
2022/06/04 03:51:32;;;;;;;1.60;1.50;;;21.60;54.70;;;;;;4928463;28;92281;-69
2022/06/04 03:53:58;;;;;;;1.25;1.15;;;21.60;54.70;;;;;;4925450;28;95057;-69
2022/06/04 03:56:24;;;;;;;1.30;1.20;;;21.60;54.90;;;;;;4929459;28;93136;-68
2022/06/04 03:58:50;;;;;;;1.52;1.42;;;21.60;54.90;;;;;;4929273;28;92342;-70
2022/06/04 04:01:28;;;;;;;1.33;1.23;;;21.60;54.90;;;;;;4930067;28;92024;-69
2022/06/04 04:03:55;;;;;;;1.40;1.30;;;21.60;55.00;;;;;;4927759;28;95162;-68
2022/06/04 04:06:25;;;;;;;1.70;1.48;;;21.60;54.80;;;;;;4929450;28;92962;-68
2022/06/04 04:08:51;;;;;;;1.50;1.40;;;21.60;54.80;;;;;;4928979;28;93781;-69
2022/06/04 04:11:19;;;;;;;1.20;1.10;;;21.60;54.90;;;;;;4929520;28;92673;-70
2022/06/04 04:13:46;;;;;;;1.40;1.30;;;21.60;54.80;;;;;;4928747;28;93175;-69
2022/06/04 04:16:14;;;;;;;1.40;1.30;;;21.60;54.90;;;;;;4927624;28;93327;-68
2022/06/04 04:18:40;;;;;;;1.60;1.50;;;21.60;55.00;;;;;;4928776;28;93144;-70
2022/06/04 04:21:08;;;;;;;1.83;1.55;;;21.60;55.00;;;;;;4929474;28;93048;-70
2022/06/04 04:23:35;;;;;;;1.30;1.20;;;21.60;55.00;;;;;;4928998;28;92525;-69
2022/06/04 04:26:02;;;;;;;4.95;1.60;;;21.60;55.10;;;;;;4927939;28;92773;-69
2022/06/04 04:28:27;;;;;;;1.45;1.25;;;21.60;55.00;;;;;;4927057;28;93244;-69
2022/06/04 04:30:53;;;;;;;1.73;1.30;;;21.60;55.10;;;;;;4928374;28;92028;-69
2022/06/04 04:33:19;;;;;;;1.98;1.33;;;21.60;55.10;;;;;;4928288;28;94109;-69
2022/06/04 04:35:46;;;;;;;1.70;1.38;;;21.60;55.00;;;;;;4928570;28;92581;-68
2022/06/04 04:38:11;;;;;;;1.92;1.58;;;21.60;55.00;;;;;;4929375;28;92546;-69
2022/06/04 04:40:42;;;;;;;1.50;1.40;;;21.60;55.00;;;;;;4927387;28;92898;-69
2022/06/04 04:43:08;;;;;;;1.30;1.20;;;21.60;55.00;;;;;;4929905;28;93202;-68
2022/06/04 04:45:34;;;;;;;1.45;1.10;;;21.60;55.10;;;;;;4928826;28;93156;-69
2022/06/04 04:47:59;;;;;;;1.90;1.50;;;21.60;55.20;;;;;;4929317;28;92013;-68
2022/06/04 04:50:31;;;;;;;1.90;1.40;;;21.60;55.00;;;;;;4929576;28;91786;-69
2022/06/04 04:52:58;;;;;;;1.45;1.30;;;21.60;55.00;;;;;;4928875;28;93107;-69
2022/06/04 04:55:24;;;;;;;1.33;1.23;;;21.60;54.90;;;;;;4928367;28;93054;-69
2022/06/04 04:57:50;;;;;;;1.67;1.40;;;21.60;55.00;;;;;;4927189;28;94270;-70
2022/06/04 05:00:17;;;;;;;1.30;1.20;;;21.60;55.00;;;;;;4927896;28;92755;-69
2022/06/04 05:02:43;;;;;;;1.48;1.38;;;21.60;55.00;;;;;;4928080;28;93590;-69
2022/06/04 05:05:11;;;;;;;2.63;1.45;;;21.60;55.00;;;;;;4927330;28;94628;-70
2022/06/04 05:07:38;;;;;;;1.33;1.23;;;21.60;55.20;;;;;;4926967;28;93070;-69
2022/06/04 05:10:05;;;;;;;1.40;1.30;;;21.60;55.00;;;;;;4927164;28;92764;-69
2022/06/04 05:12:30;;;;;;;1.25;1.15;;;21.60;54.90;;;;;;4927072;28;95542;-70
2022/06/04 05:14:56;;;;;;;1.50;1.40;;;21.60;54.90;;;;;;4926712;28;96121;-68
2022/06/04 05:17:22;;;;;;;1.40;1.30;;;21.60;54.90;;;;;;4931747;28;92714;-70
2022/06/04 05:19:48;;;;;;;1.30;1.20;;;21.60;54.90;;;;;;4928112;28;92371;-69
2022/06/04 05:22:13;;;;;;;1.30;1.20;;;21.60;54.80;;;;;;4926524;28;94783;-69
2022/06/04 05:24:39;;;;;;;1.75;1.27;;;21.60;55.10;;;;;;4926700;28;94287;-69
2022/06/04 05:27:05;;;;;;;1.77;1.38;;;21.60;55.00;;;;;;4926033;28;93181;-70
2022/06/04 05:29:33;;;;;;;1.35;1.25;;;21.60;54.90;;;;;;4927738;28;92477;-70
2022/06/04 05:31:59;;;;;;;1.10;1.08;;;21.60;54.90;;;;;;4929146;28;93177;-68
2022/06/04 05:34:26;;;;;;;1.20;1.13;;;21.60;54.80;;;;;;4927129;28;92848;-69
2022/06/04 05:36:55;;;;;;;1.23;1.13;;;21.60;54.90;;;;;;4928781;28;92033;-70
2022/06/04 05:39:22;;;;;;;1.48;1.38;;;21.60;54.90;;;;;;4928851;28;92095;-70
2022/06/04 05:41:49;;;;;;;1.25;1.05;;;21.60;54.90;;;;;;4928152;28;93450;-70
2022/06/04 05:44:15;;;;;;;1.33;1.23;;;21.60;54.90;;;;;;4928078;28;92422;-69
2022/06/04 05:46:42;;;;;;;1.30;1.20;;;21.60;55.10;;;;;;4925951;28;93520;-70
2022/06/04 05:49:12;;;;;;;1.35;1.25;;;21.60;55.00;;;;;;4925912;28;93348;-69
2022/06/04 05:51:40;;;;;;;1.30;1.20;;;21.60;55.00;;;;;;4928223;28;93270;-69
2022/06/04 05:54:06;;;;;;;1.33;1.23;;;21.60;54.90;;;;;;4930136;28;92247;-68
2022/06/04 05:56:35;;;;;;;1.40;1.30;;;21.60;54.80;;;;;;4927227;28;92877;-69
2022/06/04 05:59:03;;;;;;;1.20;1.10;;;21.60;54.90;;;;;;4928324;28;92644;-68
2022/06/04 06:01:31;;;;;;;1.40;1.30;;;21.60;54.70;;;;;;4927596;28;92990;-68
2022/06/04 06:03:57;;;;;;;1.40;1.30;;;21.60;54.90;;;;;;4927667;28;93552;-69
2022/06/04 06:06:28;;;;;;;1.33;1.23;;;21.60;54.90;;;;;;4924841;28;92027;-69
2022/06/04 06:08:54;;;;;;;1.67;1.42;;;21.60;54.80;;;;;;4925870;28;92031;-69
2022/06/04 06:11:21;;;;;;;1.67;1.55;;;21.60;55.00;;;;;;4926813;28;94139;-70
2022/06/04 06:13:49;;;;;;;1.50;1.40;;;21.60;55.00;;;;;;4928371;28;93103;-69
2022/06/04 06:16:18;;;;;;;1.42;1.33;;;21.60;54.90;;;;;;4927672;28;92880;-70
2022/06/04 06:18:44;;;;;;;1.35;1.10;;;21.60;54.90;;;;;;4928668;28;92124;-69
2022/06/04 06:21:15;;;;;;;1.25;1.15;;;21.60;54.90;;;;;;4931294;28;94195;-70
2022/06/04 06:23:42;;;;;;;1.25;1.15;;;21.60;54.90;;;;;;4929734;28;95398;-69
2022/06/04 06:26:11;;;;;;;1.40;1.30;;;21.60;54.90;;;;;;4931110;28;93391;-69
2022/06/04 06:28:39;;;;;;;1.30;1.20;;;21.60;54.90;;;;;;4931071;28;91271;-69
2022/06/04 06:31:05;;;;;;;1.30;1.20;;;21.60;54.90;;;;;;4934119;28;93472;-70
2022/06/04 06:33:31;;;;;;;1.95;1.40;;;21.60;54.80;;;;;;4928885;28;92923;-69
2022/06/04 06:35:59;;;;;;;1.33;1.23;;;21.60;54.80;;;;;;4930617;28;93617;-69
2022/06/04 06:38:25;;;;;;;1.30;1.20;;;21.50;54.70;;;;;;4931225;28;92439;-70
2022/06/04 06:40:52;;;;;;;1.40;1.30;;;21.60;54.90;;;;;;4929817;28;92701;-70
2022/06/04 06:43:18;;;;;;;1.65;1.40;;;21.60;54.90;;;;;;4929269;28;95456;-68
2022/06/04 06:45:44;;;;;;;1.30;1.20;;;21.60;54.70;;;;;;4934504;28;92556;-69
2022/06/04 06:48:10;;;;;;;3.42;1.42;;;21.60;54.60;;;;;;4935386;28;92520;-68
2022/06/04 06:50:37;;;;;;;1.70;1.35;;;21.60;54.70;;;;;;4930068;28;93450;-69
2022/06/04 06:53:03;;;;;;;1.70;1.52;;;21.60;54.70;;;;;;4930204;28;92312;-68
2022/06/04 06:55:29;;;;;;;1.55;1.40;;;21.60;54.90;;;;;;4940958;28;92597;-68
2022/06/04 06:57:54;;;;;;;1.50;1.40;;;21.60;54.80;;;;;;4930467;28;92694;-69
2022/06/04 07:00:20;;;;;;;2.45;1.50;;;21.60;55.00;;;;;;4929332;28;93866;-68
2022/06/04 07:02:46;;;;;;;2.05;1.60;;;21.60;55.30;;;;;;4928962;28;94250;-68
2022/06/04 07:05:12;;;;;;;3.25;1.60;;;21.60;55.60;;;;;;4932981;28;92070;-68
2022/06/04 07:07:37;;;;;;;4.32;1.83;;;21.60;55.70;;;;;;4935017;28;92874;-69
2022/06/04 07:10:04;;;;;;;4.85;1.92;;;21.60;55.80;;;;;;4929796;28;93799;-69
2022/06/04 07:12:31;;;;;;;5.50;2.33;;;21.60;55.00;;;;;;4928774;28;94908;-69
2022/06/04 07:14:57;;;;;;;6.68;2.85;;;21.60;53.30;;;;;;4930369;28;92507;-70
2022/06/04 07:17:23;;;;;;;5.75;2.85;;;21.50;52.00;;;;;;4930396;28;92077;-69
2022/06/04 07:19:49;;;;;;;4.82;2.35;;;21.50;51.90;;;;;;4930040;28;93153;-69
2022/06/04 07:22:14;;;;;;;8.05;2.35;;;21.50;51.40;;;;;;4928556;28;92966;-69
2022/06/04 07:24:40;;;;;;;4.82;2.95;;;21.50;51.10;;;;;;4928825;28;93690;-69
2022/06/04 07:27:06;;;;;;;3.80;2.30;;;21.40;51.00;;;;;;4930556;28;92185;-68
2022/06/04 07:29:32;;;;;;;5.80;2.55;;;21.40;51.50;;;;;;4929062;28;92719;-68
2022/06/04 07:31:58;;;;;;;5.28;2.80;;;21.40;50.90;;;;;;4930281;28;93169;-69
2022/06/04 07:34:23;;;;;;;8.60;3.10;;;21.40;50.80;;;;;;4930345;28;92528;-69
2022/06/04 07:36:49;;;;;;;5.88;3.05;;;21.40;50.60;;;;;;4929837;28;93075;-69
2022/06/04 07:39:19;;;;;;;4.35;2.58;;;21.40;50.50;;;;;;4929913;28;93110;-69
2022/06/04 07:41:46;;;;;;;;;;;21.40;50.60;;;;;;4930549;28;93166;-69
2022/06/04 07:44:16;;;;;;;2.60;2.22;;;21.40;50.60;;;;;;4930967;28;92711;-69
2022/06/04 07:46:43;;;;;;;11.07;2.50;;;21.40;50.50;;;;;;4934904;28;92461;-69
2022/06/04 07:49:09;;;;;;;6.60;2.97;;;21.40;50.90;;;;;;4932264;28;93770;-70
2022/06/04 07:51:36;;;;;;;6.35;3.10;;;21.50;51.10;;;;;;4928736;28;93310;-69
2022/06/04 07:54:03;;;;;;;4.28;2.85;;;21.50;51.00;;;;;;4933539;28;93109;-69
2022/06/04 07:56:29;;;;;;;2.90;2.20;;;21.50;51.50;;;;;;4957464;28;92550;-69
2022/06/04 07:58:55;;;;;;;5.70;2.60;;;21.50;51.00;;;;;;4932304;28;92916;-70
2022/06/04 08:01:22;;;;;;;16.67;3.15;;;21.50;51.80;;;;;;4932281;28;92749;-69
2022/06/04 08:03:49;;;;;;;9.18;3.20;;;21.50;51.60;;;;;;4937979;28;93061;-70
2022/06/04 08:06:17;;;;;;;49.78;10.82;;;21.60;52.00;;;;;;4930852;28;91962;-70
2022/06/04 08:08:49;;;;;;;47.60;9.43;;;21.60;51.90;;;;;;4928402;28;92773;-70
2022/06/04 08:11:34;;;;;;;52.58;9.85;;;21.60;52.60;;;;;;4928743;28;93283;-69
2022/06/04 08:14:05;;;;;;;37.78;8.82;;;21.60;52.20;;;;;;4930410;28;94167;-70
2022/06/04 08:16:31;;;;;;;24.00;7.75;;;21.60;52.10;;;;;;4929227;28;93041;-69
2022/06/04 08:18:58;;;;;;;21.15;5.88;;;21.60;51.90;;;;;;4929384;28;93039;-69
2022/06/04 08:21:24;;;;;;;18.67;4.90;;;21.60;51.70;;;;;;4928559;28;92733;-71
2022/06/04 08:23:50;;;;;;;23.70;6.43;;;21.60;51.90;;;;;;4925275;28;92713;-71
2022/06/04 08:26:16;;;;;;;18.85;5.97;;;21.60;52.20;;;;;;4928945;28;92789;-70
2022/06/04 08:28:42;;;;;;;16.02;5.80;;;21.60;51.90;;;;;;4931933;28;92827;-70
2022/06/04 08:31:13;;;;;;;12.68;4.38;;;21.60;51.80;;;;;;4927428;28;93201;-70
2022/06/04 08:33:40;;;;;;;10.90;4.55;;;21.60;51.80;;;;;;4929439;28;92594;-68
2022/06/04 08:36:08;;;;;;;11.90;4.38;;;21.60;51.80;;;;;;4931345;28;92327;-68
2022/06/04 08:38:34;;;;;;;12.98;4.85;;;21.60;51.40;;;;;;4934991;28;95224;-70
2022/06/04 08:41:03;;;;;;;10.25;4.05;;;21.60;51.70;;;;;;4973786;28;93547;-69
2022/06/04 08:43:59;;;;;;;16.50;4.63;;;21.60;51.90;;;;;;4971265;28;92962;-69
2022/06/04 08:46:40;;;;;;;14.85;4.80;;;21.60;52.20;;;;;;4967202;28;92709;-68
2022/06/04 08:49:14;;;;;;;12.18;4.07;;;21.60;52.30;;;;;;4965386;28;95611;-69
2022/06/04 08:51:43;;;;;;;16.80;4.05;;;21.70;52.50;;;;;;4969053;28;96387;-69
2022/06/04 08:59:49;;;;;;;18.15;4.18;;;21.70;52.80;;;;;;4966197;28;92591;-70
2022/06/04 09:02:22;;;;;;;11.75;4.25;;;21.70;52.60;;;;;;4965534;28;92946;-70
2022/06/04 09:05:00;;;;;;;14.32;4.28;;;21.70;52.80;;;;;;4964487;28;93267;-71
2022/06/04 09:07:37;;;;;;;9.82;3.90;;;21.70;53.00;;;;;;4965376;28;92442;-72
2022/06/04 09:10:10;;;;;;;10.68;3.83;;;21.70;53.00;;;;;;4965991;28;93086;-71
2022/06/04 09:12:47;;;;;;;14.05;3.97;;;21.70;53.10;;;;;;4966313;28;92650;-69
2022/06/04 09:15:15;;;;;;;10.10;3.88;;;21.70;53.10;;;;;;4966899;28;92141;-72
2022/06/04 09:17:51;;;;;;;9.90;3.47;;;21.70;53.10;;;;;;4966941;28;92116;-73
2022/06/04 09:20:40;;;;;;;8.10;3.35;;;21.70;53.30;;;;;;4967430;28;93078;-72
2022/06/04 09:23:13;;;;;;;;;;;21.60;53.30;;;;;;4968083;28;92256;-72
2022/06/04 09:26:10;;;;;;;11.10;3.80;;;21.70;54.00;;;;;;4973102;28;92903;-74
2022/06/04 09:28:58;;;;;;;9.75;4.18;;;21.70;53.50;;;;;;4968298;28;93048;-71
2022/06/04 09:32:10;;;;;;;14.82;4.40;;;21.70;53.60;;;;;;4965836;28;95049;-73
2022/06/04 09:34:39;;;;;;;8.43;3.80;;;21.70;53.80;;;;;;4953750;28;94034;-72
2022/06/04 09:37:10;;;;;;;10.52;3.78;;;21.70;54.00;;;;;;4967088;28;93165;-73
2022/06/04 09:39:42;;;;;;;6.88;3.10;;;21.70;54.20;;;;;;4965853;28;92011;-72
2022/06/04 09:42:14;;;;;;;12.00;3.97;;;21.70;54.10;;;;;;4965454;28;96273;-71
2022/06/04 09:44:56;;;;;;;9.57;3.50;;;21.70;54.20;;;;;;4966221;28;92953;-72
2022/06/04 09:47:29;;;;;;;34.17;9.75;;;21.70;54.40;;;;;;4966460;28;92277;-72
2022/06/04 09:49:58;;;;;;;56.53;15.52;;;21.70;54.60;;;;;;4966914;28;91620;-72
2022/06/04 09:52:33;;;;;;;43.25;10.40;;;21.70;55.20;;;;;;4969354;28;93152;-72
2022/06/04 09:55:03;;;;;;;42.58;11.65;;;21.70;54.90;;;;;;4972769;28;92664;-72
2022/06/04 09:57:35;;;;;;;43.00;11.27;;;21.70;55.50;;;;;;4967835;28;93378;-71
2022/06/04 10:00:05;;;;;;;29.60;8.93;;;21.70;56.50;;;;;;4968537;28;92984;-72
2022/06/04 10:02:32;;;;;;;35.20;10.15;;;21.70;57.30;;;;;;4975751;28;93072;-72
2022/06/04 10:05:06;;;;;;;27.73;8.30;;;21.70;57.70;;;;;;4969586;28;92900;-71
2022/06/04 10:07:35;;;;;;;23.27;8.15;;;21.70;57.60;;;;;;4967459;28;92964;-71
2022/06/04 10:10:21;;;;;;;28.47;9.17;;;21.70;57.80;;;;;;4967369;28;92341;-72
2022/06/04 10:15:41;;;;;;;39.83;8.55;;;21.80;58.20;;;;;;4975598;28;91951;-69
2022/06/04 10:18:28;;;;;;;34.47;8.63;;;21.80;58.10;;;;;;4967183;28;92514;-71
2022/06/04 10:21:06;;;;;;;30.63;8.07;;;21.80;57.90;;;;;;4970634;28;93182;-71
2022/06/04 10:24:06;;;;;;;22.65;8.13;;;21.80;58.20;;;;;;4982356;28;95033;-70
2022/06/04 10:26:43;;;;;;;32.55;8.68;;;21.80;58.20;;;;;;4961905;28;93414;-70
2022/06/04 10:29:27;;;;;;;26.75;7.50;;;21.80;58.50;;;;;;4966976;28;92438;-71
2022/06/04 10:32:07;;;;;;;28.33;7.53;;;21.80;58.70;;;;;;4968695;28;92376;-70
2022/06/04 10:35:00;;;;;;;24.02;7.45;;;21.80;58.50;;;;;;4968741;28;92463;-71
2022/06/04 10:37:43;;;;;;;24.48;8.10;;;21.80;58.40;;;;;;4966833;28;95982;-71
2022/06/04 10:40:41;;;;;;;21.92;7.60;;;21.80;58.20;;;;;;4966984;28;92495;-71
2022/06/04 10:43:31;;;;;;;27.60;8.85;;;21.80;57.90;;;;;;4968756;28;91383;-71
2022/06/04 10:46:12;;;;;;;21.00;7.22;;;21.80;58.30;;;;;;4970918;28;93485;-69
2022/06/04 10:48:55;;;;;;;19.83;7.13;;;21.80;58.30;;;;;;4966561;28;93038;-70
2022/06/04 10:51:33;;;;;;;21.33;7.07;;;21.80;57.80;;;;;;4969083;28;93978;-71
2022/06/04 10:54:13;;;;;;;17.42;6.75;;;21.80;57.80;;;;;;4967188;28;93034;-70
2022/06/04 10:57:04;;;;;;;19.75;6.43;;;21.80;58.10;;;;;;4969023;28;93096;-70
2022/06/04 10:59:53;;;;;;;19.60;6.75;;;21.80;58.30;;;;;;4969270;28;92643;-69
2022/06/04 11:02:44;;;;;;;17.50;7.00;;;21.70;58.00;;;;;;4965658;28;93544;-69
2022/06/04 11:05:26;;;;;;;20.60;6.53;;;21.80;58.00;;;;;;4969516;28;92371;-71
2022/06/04 11:07:58;;;;;;;23.75;7.90;;;21.80;57.90;;;;;;4968701;28;93289;-71
2022/06/04 11:10:35;;;;;;;18.88;6.30;;;21.80;57.80;;;;;;4969086;28;92945;-70
2022/06/04 11:13:12;;;;;;;16.25;6.55;;;21.80;57.80;;;;;;4968955;28;92884;-70
2022/06/04 11:15:38;;;;;;;21.55;6.18;;;21.80;57.80;;;;;;4968750;28;92436;-70
2022/06/04 11:18:12;;;;;;;21.27;7.47;;;21.80;57.70;;;;;;4968172;28;93854;-70
2022/06/04 11:20:47;;;;;;;18.13;6.22;;;21.80;57.50;;;;;;4968145;28;93900;-71
2022/06/04 11:23:20;;;;;;;16.67;6.20;;;21.80;57.60;;;;;;4969149;28;92893;-70
2022/06/04 11:25:50;;;;;;;14.75;6.35;;;21.80;57.60;;;;;;4972427;28;92967;-71
2022/06/04 11:28:26;;;;;;;19.60;6.22;;;21.80;57.50;;;;;;4967537;28;97482;-70
2022/06/04 11:31:17;;;;;;;16.65;6.53;;;21.80;57.50;;;;;;4968490;28;92962;-70
2022/06/04 11:33:54;;;;;;;12.07;5.20;;;21.80;58.00;;;;;;4967952;28;92785;-70
2022/06/04 11:36:38;;;;;;;14.70;6.03;;;21.80;57.40;;;;;;4967463;28;92333;-69
2022/06/04 11:39:49;;;;;;;18.58;6.57;;;21.80;57.40;;;;;;4968838;28;93573;-71
2022/06/04 11:42:56;;;;;;;13.13;6.20;;;21.80;57.50;;;;;;4955945;28;93390;-70
2022/06/04 11:45:53;;;;;;;14.85;5.63;;;21.80;57.50;;;;;;4967906;28;93451;-70
2022/06/04 11:48:48;;;;;;;16.90;5.25;;;21.80;57.30;;;;;;4970147;28;92416;-71
2022/06/04 11:51:47;;;;;;;17.48;6.00;;;21.80;57.50;;;;;;4967887;28;93243;-71
2022/06/04 11:54:31;;;;;;;14.23;5.25;;;21.80;57.50;;;;;;4967772;28;95995;-71
2022/06/04 11:57:11;;;;;;;11.85;5.55;;;21.80;57.90;;;;;;4972170;28;92987;-69
2022/06/04 12:00:00;;;;;;;12.60;5.18;;;21.80;57.70;;;;;;4967733;28;93182;-71
2022/06/04 12:02:27;;;;;;;13.80;5.10;;;21.80;57.60;;;;;;4969188;28;94303;-70
2022/06/04 12:05:21;;;;;;;12.55;5.22;;;21.80;58.20;;;;;;4968482;28;92729;-70
2022/06/04 12:07:54;;;;;;;9.98;5.47;;;21.80;57.60;;;;;;4968264;28;92434;-71
2022/06/04 12:10:44;;;;;;;10.55;5.28;;;21.80;57.60;;;;;;4967589;28;92086;-70
2022/06/04 12:13:18;;;;;;;11.50;4.88;;;21.80;57.60;;;;;;4965686;28;97138;-69
2022/06/04 12:15:52;;;;;;;13.13;5.13;;;21.80;57.60;;;;;;4966865;28;93911;-70
2022/06/04 12:18:30;;;;;;;10.38;5.18;;;21.80;57.30;;;;;;4967971;28;92506;-71
2022/06/04 12:24:27;;;;;;;14.70;4.68;;;21.80;57.40;;;;;;4971720;28;92842;-70
2022/06/04 12:27:16;;;;;;;6.65;4.55;;;21.80;57.40;;;;;;4967713;28;93394;-70
2022/06/04 12:29:51;;;;;;;11.73;4.80;;;21.80;57.40;;;;;;4968456;28;92524;-70
2022/06/04 12:32:22;;;;;;;9.60;4.55;;;21.80;57.60;;;;;;4968085;28;92105;-70
2022/06/04 12:35:03;;;;;;;16.90;5.20;;;21.80;57.70;;;;;;4974183;28;93496;-71
2022/06/04 12:37:35;;;;;;;7.90;4.60;;;21.90;57.60;;;;;;4967816;28;92975;-71
2022/06/04 12:40:24;;;;;;;9.05;4.50;;;21.90;57.80;;;;;;4967458;28;92925;-70
2022/06/04 12:43:14;;;;;;;8.77;4.13;;;21.80;57.80;;;;;;4971391;28;92995;-71
2022/06/04 12:45:49;;;;;;;8.07;4.57;;;21.80;57.80;;;;;;4969257;28;92752;-70
2022/06/04 12:48:35;;;;;;;7.43;4.22;;;21.90;57.80;;;;;;4993063;28;86076;-68
2022/06/04 12:51:26;;;;;;;9.63;4.35;;;21.90;57.90;;;;;;4987996;28;86735;-70
2022/06/04 12:54:00;;;;;;;7.72;4.13;;;21.90;57.90;;;;;;4979813;28;87243;-68
2022/06/04 12:56:29;;;;;;;9.35;4.55;;;21.90;58.00;;;;;;4987865;28;87561;-67
2022/06/04 12:58:57;;;;;;;10.75;4.30;;;21.90;57.90;;;;;;4976098;28;87247;-68
2022/06/04 13:01:29;;;;;;;19.40;4.60;;;21.90;58.20;;;;;;4988391;28;86072;-68
2022/06/04 13:04:10;;;;;;;9.20;4.22;;;21.80;58.40;;;;;;4988229;28;85609;-68
2022/06/04 13:06:57;;;;;;;7.20;4.55;;;21.90;58.40;;;;;;4988322;28;85743;-68
2022/06/04 13:09:41;;;;;;;9.05;4.15;;;21.90;58.30;;;;;;4988170;28;86144;-70
2022/06/04 13:12:43;;;;;;;7.38;4.90;;;21.90;58.20;;;;;;4988190;28;86277;-70
2022/06/04 13:15:30;;;;;;;9.38;4.03;;;21.90;58.30;;;;;;4987379;28;86259;-69
2022/06/04 13:17:55;;;;;;;7.95;4.43;;;21.90;58.50;;;;;;4986933;28;88563;-69
2022/06/04 13:20:42;;;;;;;8.10;4.15;;;21.90;58.50;;;;;;4987520;28;86999;-69
2022/06/04 13:23:21;;;;;;;7.07;4.13;;;21.90;58.60;;;;;;4987769;28;86253;-70
2022/06/04 13:25:52;;;;;;;8.27;4.10;;;21.90;58.60;;;;;;4987695;28;86665;-69
2022/06/04 13:28:38;;;;;;;9.13;4.25;;;21.90;58.80;;;;;;4973001;28;89967;-69
2022/06/04 13:31:14;;;;;;;16.77;4.93;;;21.90;58.70;;;;;;4987491;28;87020;-68
2022/06/04 13:33:40;;;;;;;10.43;4.07;;;21.90;58.70;;;;;;4987053;28;85681;-68